createdAt,value
2019-03-24T00:00:50.587Z,21.05
2019-03-24T00:01:50.624Z,21.01
2019-03-24T00:02:50.649Z,21.03
2019-03-24T00:03:50.726Z,21.06
2019-03-24T00:04:51.007Z,21.09
2019-03-24T00:05:50.795Z,21.05
2019-03-24T00:06:50.821Z,20.98
2019-03-24T00:07:50.810Z,21.03
2019-03-24T00:08:50.839Z,21.05
2019-03-24T00:09:50.869Z,21.03
2019-03-24T00:10:50.901Z,21.03
2019-03-24T00:11:51.284Z,21.06
2019-03-24T00:12:51.022Z,21.00
2019-03-24T00:13:51.014Z,21.08
2019-03-24T00:14:51.026Z,21.01
2019-03-24T00:15:51.115Z,21.06
2019-03-24T00:16:51.101Z,21.06
2019-03-24T00:17:51.174Z,21.01
2019-03-24T00:18:51.462Z,21.09
2019-03-24T00:19:51.187Z,21.01
2019-03-24T00:20:51.223Z,21.09
2019-03-24T00:21:51.312Z,21.03
2019-03-24T00:22:51.336Z,21.05
2019-03-24T00:23:51.332Z,21.05
2019-03-24T00:24:51.352Z,21.05
2019-03-24T00:25:51.689Z,21.06
2019-03-24T00:26:51.414Z,21.06
2019-03-24T00:27:51.507Z,21.08
2019-03-24T00:28:51.531Z,21.05
2019-03-24T00:29:51.518Z,21.08
2019-03-24T00:30:51.545Z,21.09
2019-03-24T00:31:51.576Z,20.98
2019-03-24T00:32:51.964Z,21.01
2019-03-24T00:33:51.692Z,21.06
2019-03-24T00:34:51.725Z,21.05
2019-03-24T00:35:51.706Z,21.01
2019-03-24T00:36:51.746Z,21.03
2019-03-24T00:37:51.767Z,21.03
2019-03-24T00:38:51.861Z,20.98
2019-03-24T00:39:52.133Z,21.01
2019-03-24T00:40:51.918Z,21.05
2019-03-24T00:41:51.903Z,21.05
2019-03-24T00:42:51.977Z,20.98
2019-03-24T00:43:51.961Z,21.03
2019-03-24T00:44:52.042Z,21.06
2019-03-24T00:45:52.325Z,21.06
2019-03-24T00:46:52.060Z,21.00
2019-03-24T00:47:52.235Z,20.97
2019-03-24T00:48:52.169Z,21.00
2019-03-24T00:49:52.154Z,21.01
2019-03-24T00:50:52.186Z,21.00
2019-03-24T00:51:52.518Z,21.05
2019-03-24T00:52:52.250Z,20.98
2019-03-24T00:53:52.335Z,21.05
2019-03-24T00:54:52.313Z,21.01
2019-03-24T00:55:52.345Z,21.06
2019-03-24T00:56:52.437Z,21.03
2019-03-24T00:57:52.712Z,21.00
2019-03-24T00:58:52.494Z,21.05
2019-03-24T00:59:52.476Z,21.00
2019-03-24T01:00:52.511Z,20.97
2019-03-24T01:01:52.587Z,21.00
2019-03-24T01:02:52.632Z,21.00
2019-03-24T01:03:52.606Z,21.03
2019-03-24T01:04:52.939Z,21.01
2019-03-24T01:05:52.675Z,21.01
2019-03-24T01:06:52.743Z,20.98
2019-03-24T01:07:52.732Z,20.97
2019-03-24T01:08:52.767Z,21.03
2019-03-24T01:09:52.790Z,20.96
2019-03-24T01:10:52.875Z,21.03
2019-03-24T01:11:53.155Z,20.97
2019-03-24T01:12:52.891Z,21.00
2019-03-24T01:13:52.920Z,21.00
2019-03-24T01:14:52.953Z,21.03
2019-03-24T01:15:52.983Z,20.98
2019-03-24T01:16:53.072Z,20.98
2019-03-24T01:17:53.104Z,21.01
2019-03-24T01:18:53.383Z,20.97
2019-03-24T01:19:53.120Z,20.97
2019-03-24T01:20:53.197Z,21.00
2019-03-24T01:21:53.227Z,20.97
2019-03-24T01:22:53.257Z,21.00
2019-03-24T01:23:53.250Z,20.91
2019-03-24T01:24:53.273Z,21.03
2019-03-24T01:25:53.654Z,20.98
2019-03-24T01:26:53.387Z,20.97
2019-03-24T01:27:53.367Z,20.97
2019-03-24T01:28:53.451Z,20.98
2019-03-24T01:29:53.434Z,20.97
2019-03-24T01:30:53.471Z,20.97
2019-03-24T01:31:53.552Z,20.96
2019-03-24T01:32:53.983Z,20.97
2019-03-24T01:34:53.594Z,20.96
2019-03-24T01:35:53.633Z,20.98
2019-03-24T01:36:53.662Z,20.97
2019-03-24T01:38:53.779Z,20.97
2019-03-24T01:39:54.063Z,20.98
2019-03-24T01:40:53.845Z,20.94
2019-03-24T01:41:53.872Z,20.97
2019-03-24T01:42:53.851Z,20.94
2019-03-24T01:43:53.931Z,20.98
2019-03-24T01:44:53.970Z,20.91
2019-03-24T01:45:58.592Z,20.97
2019-03-24T01:46:54.282Z,20.94
2019-03-24T01:47:54.061Z,20.96
2019-03-24T01:48:54.090Z,20.98
2019-03-24T01:49:54.072Z,21.00
2019-03-24T01:50:54.103Z,20.94
2019-03-24T01:51:54.200Z,20.96
2019-03-24T01:52:54.223Z,20.96
2019-03-24T01:53:54.511Z,21.00
2019-03-24T01:54:54.288Z,20.97
2019-03-24T01:55:54.267Z,20.97
2019-03-24T01:56:54.355Z,20.96
2019-03-24T01:57:54.382Z,20.98
2019-03-24T01:58:54.361Z,20.97
2019-03-24T01:59:54.445Z,20.97
2019-03-24T02:00:54.777Z,20.96
2019-03-24T02:01:54.456Z,20.93
2019-03-24T02:03:54.526Z,20.98
2019-03-24T02:04:54.557Z,20.88
2019-03-24T02:05:54.584Z,21.06
2019-03-24T02:06:54.633Z,20.96
2019-03-24T02:07:54.954Z,20.93
2019-03-24T02:08:54.732Z,20.87
2019-03-24T02:09:54.713Z,20.96
2019-03-24T02:10:54.813Z,20.94
2019-03-24T02:11:54.777Z,20.94
2019-03-24T02:12:54.867Z,20.91
2019-03-24T02:13:54.896Z,20.90
2019-03-24T02:14:55.173Z,20.88
2019-03-24T02:15:54.956Z,21.01
2019-03-24T02:16:54.992Z,20.96
2019-03-24T02:17:54.972Z,20.94
2019-03-24T02:18:55.006Z,20.90
2019-03-24T02:19:55.087Z,20.94
2019-03-24T02:20:55.118Z,20.93
2019-03-24T02:21:55.403Z,20.96
2019-03-24T02:22:55.185Z,20.93
2019-03-24T02:23:55.168Z,21.08
2019-03-24T02:24:55.247Z,20.88
2019-03-24T02:25:55.224Z,20.87
2019-03-24T02:26:55.264Z,20.87
2019-03-24T02:27:55.340Z,20.88
2019-03-24T02:28:55.628Z,20.91
2019-03-24T02:29:56.259Z,20.85
2019-03-24T02:30:55.392Z,20.88
2019-03-24T02:31:55.470Z,20.98
2019-03-24T02:32:55.504Z,21.01
2019-03-24T02:33:55.490Z,21.01
2019-03-24T02:34:55.823Z,20.83
2019-03-24T02:35:55.568Z,20.91
2019-03-24T02:36:55.640Z,20.83
2019-03-24T02:37:55.675Z,20.98
2019-03-24T02:38:55.650Z,21.00
2019-03-24T02:39:55.672Z,20.94
2019-03-24T02:40:56.006Z,20.88
2019-03-24T02:41:55.800Z,21.00
2019-03-24T02:42:55.775Z,20.91
2019-03-24T02:43:55.810Z,20.81
2019-03-24T02:44:55.890Z,21.01
2019-03-24T02:45:55.915Z,21.00
2019-03-24T02:46:56.200Z,20.94
2019-03-24T02:47:55.982Z,20.90
2019-03-24T02:48:55.969Z,20.88
2019-03-24T02:49:56.014Z,20.98
2019-03-24T02:50:56.046Z,20.87
2019-03-24T02:51:56.066Z,20.93
2019-03-24T02:52:56.145Z,20.88
2019-03-24T02:53:56.423Z,20.85
2019-03-24T02:54:56.208Z,20.94
2019-03-24T02:55:56.186Z,20.96
2019-03-24T02:56:56.269Z,20.96
2019-03-24T02:58:56.284Z,20.98
2019-03-24T02:59:56.364Z,20.96
2019-03-24T03:00:56.657Z,20.98
2019-03-24T03:01:56.395Z,20.96
2019-03-24T03:02:56.412Z,20.97
2019-03-24T03:03:56.456Z,20.94
2019-03-24T03:04:56.526Z,20.93
2019-03-24T03:05:56.508Z,20.87
2019-03-24T03:06:56.549Z,20.96
2019-03-24T03:07:56.877Z,20.91
2019-03-24T03:08:56.665Z,20.97
2019-03-24T03:09:56.635Z,20.87
2019-03-24T03:10:56.736Z,20.87
2019-03-24T03:11:56.704Z,20.98
2019-03-24T03:12:56.733Z,20.90
2019-03-24T03:13:56.810Z,20.96
2019-03-24T03:14:57.145Z,20.96
2019-03-24T03:15:56.831Z,20.96
2019-03-24T03:16:56.869Z,20.94
2019-03-24T03:17:56.952Z,20.96
2019-03-24T03:18:56.925Z,20.94
2019-03-24T03:19:57.003Z,20.93
2019-03-24T03:20:56.988Z,20.96
2019-03-24T03:21:57.320Z,20.97
2019-03-24T03:22:57.071Z,20.98
2019-03-24T03:23:57.092Z,20.94
2019-03-24T03:24:57.162Z,20.83
2019-03-24T03:25:57.151Z,20.91
2019-03-24T03:26:57.238Z,20.91
2019-03-24T03:27:57.215Z,20.96
2019-03-24T03:28:57.595Z,20.90
2019-03-24T03:29:57.272Z,20.83
2019-03-24T03:30:57.359Z,20.90
2019-03-24T03:31:57.345Z,20.90
2019-03-24T03:32:57.375Z,20.85
2019-03-24T03:33:57.414Z,20.96
2019-03-24T03:34:57.502Z,20.90
2019-03-24T03:35:57.778Z,20.91
2019-03-24T03:36:57.558Z,20.90
2019-03-24T03:37:57.582Z,20.94
2019-03-24T03:38:57.563Z,20.96
2019-03-24T03:39:58.520Z,20.88
2019-03-24T03:40:57.633Z,20.91
2019-03-24T03:41:57.670Z,20.93
2019-03-24T03:43:58.025Z,20.88
2019-03-24T03:44:57.805Z,20.91
2019-03-24T03:45:57.835Z,20.85
2019-03-24T03:46:57.820Z,20.88
2019-03-24T03:47:57.862Z,20.78
2019-03-24T03:48:57.930Z,20.83
2019-03-24T03:49:57.918Z,20.87
2019-03-24T03:50:58.300Z,20.90
2019-03-24T03:51:58.030Z,20.85
2019-03-24T03:52:58.016Z,20.90
2019-03-24T03:53:59.323Z,20.88
2019-03-24T03:54:58.075Z,20.94
2019-03-24T03:55:58.167Z,20.87
2019-03-24T03:56:58.192Z,20.93
2019-03-24T03:57:58.473Z,20.93
2019-03-24T03:58:58.277Z,20.87
2019-03-24T03:59:58.241Z,20.91
2019-03-24T04:00:58.290Z,20.91
2019-03-24T04:01:58.358Z,20.85
2019-03-24T04:02:58.388Z,20.90
2019-03-24T04:03:58.389Z,20.91
2019-03-24T04:04:58.690Z,20.91
2019-03-24T04:05:58.584Z,20.90
2019-03-24T04:06:58.457Z,20.85
2019-03-24T04:07:58.506Z,20.91
2019-03-24T04:08:58.522Z,20.85
2019-03-24T04:09:58.607Z,20.88
2019-03-24T04:10:58.642Z,20.83
2019-03-24T04:11:58.913Z,20.88
2019-03-24T04:12:58.706Z,20.94
2019-03-24T04:14:58.713Z,20.83
2019-03-24T04:15:58.798Z,20.85
2019-03-24T04:17:06.919Z,20.83
2019-03-24T04:17:58.858Z,20.91
2019-03-24T04:18:59.222Z,20.82
2019-03-24T04:19:58.900Z,20.81
2019-03-24T04:20:58.962Z,20.90
2019-03-24T04:21:58.934Z,20.82
2019-03-24T04:22:58.971Z,20.85
2019-03-24T04:24:59.092Z,20.82
2019-03-24T04:25:59.376Z,20.82
2019-03-24T04:26:59.142Z,20.83
2019-03-24T04:27:59.188Z,20.87
2019-03-24T04:28:59.208Z,20.90
2019-03-24T04:29:59.185Z,20.83
2019-03-24T04:30:59.222Z,20.88
2019-03-24T04:31:59.265Z,20.82
2019-03-24T04:32:59.593Z,20.90
2019-03-24T04:33:59.365Z,20.81
2019-03-24T04:34:59.369Z,20.85
2019-03-24T04:35:59.384Z,20.88
2019-03-24T04:36:59.470Z,20.85
2019-03-24T04:37:59.448Z,20.88
2019-03-24T04:38:59.543Z,20.82
2019-03-24T04:39:59.821Z,20.85
2019-03-24T04:40:59.608Z,20.85
2019-03-24T04:41:59.634Z,20.85
2019-03-24T04:42:59.609Z,20.88
2019-03-24T04:43:59.651Z,20.87
2019-03-24T04:44:59.726Z,20.88
2019-03-24T04:46:00.002Z,20.85
2019-03-24T04:46:59.728Z,20.72
2019-03-24T04:47:59.763Z,20.81
2019-03-24T04:50:59.914Z,20.76
2019-03-24T04:52:00.247Z,20.88
2019-03-24T04:52:59.984Z,20.87
2019-03-24T04:53:59.963Z,20.85
2019-03-24T04:55:00.037Z,20.85
2019-03-24T04:56:00.018Z,20.82
2019-03-24T04:57:00.109Z,20.83
2019-03-24T04:58:00.449Z,20.83
2019-03-24T04:59:00.118Z,20.83
2019-03-24T05:00:00.441Z,20.82
2019-03-24T05:01:00.182Z,20.76
2019-03-24T05:02:00.206Z,20.83
2019-03-24T05:03:00.250Z,20.75
2019-03-24T05:04:00.324Z,20.83
2019-03-24T05:05:00.608Z,20.82
2019-03-24T05:06:00.390Z,20.81
2019-03-24T05:07:00.370Z,20.81
2019-03-24T05:08:00.407Z,20.88
2019-03-24T05:09:00.491Z,20.79
2019-03-24T05:10:00.518Z,20.85
2019-03-24T05:11:00.499Z,20.81
2019-03-24T05:12:00.886Z,20.79
2019-03-24T05:14:00.594Z,20.79
2019-03-24T05:15:00.671Z,20.79
2019-03-24T05:16:00.660Z,20.76
2019-03-24T05:17:00.734Z,20.82
2019-03-24T05:18:00.733Z,20.73
2019-03-24T05:19:01.053Z,20.81
2019-03-24T05:20:00.842Z,20.82
2019-03-24T05:21:00.866Z,20.76
2019-03-24T05:22:00.848Z,20.81
2019-03-24T05:23:00.882Z,20.72
2019-03-24T05:24:00.908Z,20.78
2019-03-24T05:25:00.949Z,20.75
2019-03-24T05:26:01.323Z,20.76
2019-03-24T05:27:01.012Z,20.71
2019-03-24T05:28:01.082Z,20.72
2019-03-24T05:29:01.129Z,20.73
2019-03-24T05:30:01.098Z,20.73
2019-03-24T05:31:01.189Z,20.82
2019-03-24T05:32:01.191Z,20.78
2019-03-24T05:33:01.552Z,20.75
2019-03-24T05:34:01.231Z,20.81
2019-03-24T05:35:01.259Z,20.71
2019-03-24T05:36:01.344Z,20.75
2019-03-24T05:37:01.326Z,20.71
2019-03-24T05:38:01.354Z,20.72
2019-03-24T05:39:01.444Z,20.73
2019-03-24T05:40:01.723Z,20.72
2019-03-24T05:41:01.455Z,20.73
2019-03-24T05:42:01.846Z,20.73
2019-03-24T05:43:01.573Z,20.76
2019-03-24T05:44:01.654Z,20.73
2019-03-24T05:45:01.641Z,20.73
2019-03-24T05:46:01.608Z,20.73
2019-03-24T05:47:01.990Z,20.68
2019-03-24T05:48:01.720Z,20.73
2019-03-24T05:49:01.759Z,20.76
2019-03-24T05:50:01.739Z,20.72
2019-03-24T05:51:01.789Z,20.69
2019-03-24T05:52:01.851Z,20.75
2019-03-24T05:53:01.887Z,20.69
2019-03-24T05:54:02.217Z,20.73
2019-03-24T05:55:01.898Z,20.71
2019-03-24T05:56:01.925Z,20.73
2019-03-24T05:57:01.958Z,20.75
2019-03-24T05:58:01.992Z,20.68
2019-03-24T05:59:02.023Z,20.73
2019-03-24T06:00:02.055Z,20.72
2019-03-24T06:01:02.386Z,20.72
2019-03-24T06:02:02.171Z,20.71
2019-03-24T06:03:02.152Z,20.69
2019-03-24T06:04:02.188Z,20.68
2019-03-24T06:05:02.261Z,20.69
2019-03-24T06:06:02.245Z,20.71
2019-03-24T06:07:02.325Z,20.73
2019-03-24T06:08:02.683Z,20.73
2019-03-24T06:09:02.397Z,20.68
2019-03-24T06:10:02.427Z,20.73
2019-03-24T06:11:02.403Z,20.73
2019-03-24T06:12:02.443Z,20.75
2019-03-24T06:13:02.468Z,20.69
2019-03-24T06:14:02.553Z,20.72
2019-03-24T06:15:02.889Z,20.73
2019-03-24T06:16:02.566Z,20.79
2019-03-24T06:17:02.596Z,20.73
2019-03-24T06:18:02.684Z,20.69
2019-03-24T06:19:02.662Z,20.71
2019-03-24T06:20:02.744Z,20.72
2019-03-24T06:21:02.792Z,20.72
2019-03-24T06:22:03.063Z,20.71
2019-03-24T06:23:02.783Z,20.68
2019-03-24T06:24:02.872Z,20.68
2019-03-24T06:25:02.855Z,20.68
2019-03-24T06:26:02.882Z,20.76
2019-03-24T06:27:02.966Z,20.68
2019-03-24T06:28:02.940Z,20.69
2019-03-24T06:29:03.326Z,20.68
2019-03-24T06:30:03.010Z,20.72
2019-03-24T06:31:03.094Z,20.72
2019-03-24T06:32:03.079Z,20.71
2019-03-24T06:33:03.118Z,20.75
2019-03-24T06:34:03.187Z,20.69
2019-03-24T06:35:03.521Z,20.73
2019-03-24T06:36:03.250Z,20.72
2019-03-24T06:37:03.279Z,20.71
2019-03-24T06:38:03.259Z,20.73
2019-03-24T06:39:03.300Z,20.71
2019-03-24T06:40:03.343Z,20.64
2019-03-24T06:41:03.662Z,20.73
2019-03-24T06:42:03.441Z,20.72
2019-03-24T06:43:03.438Z,20.71
2019-03-24T06:44:03.455Z,20.68
2019-03-24T06:45:03.489Z,20.76
2019-03-24T06:46:03.570Z,20.69
2019-03-24T06:47:03.846Z,20.69
2019-03-24T06:48:03.582Z,20.72
2019-03-24T06:49:03.664Z,20.71
2019-03-24T06:50:03.647Z,20.60
2019-03-24T06:51:03.681Z,20.73
2019-03-24T06:52:03.757Z,20.68
2019-03-24T06:53:03.742Z,20.72
2019-03-24T06:54:04.118Z,20.69
2019-03-24T06:55:03.816Z,20.75
2019-03-24T06:56:03.831Z,20.69
2019-03-24T06:57:03.865Z,20.78
2019-03-24T06:58:03.960Z,20.71
2019-03-24T06:59:03.935Z,20.73
2019-03-24T07:00:03.981Z,20.73
2019-03-24T07:01:04.341Z,20.73
2019-03-24T07:02:04.031Z,20.69
2019-03-24T07:03:04.113Z,20.73
2019-03-24T07:04:04.092Z,20.69
2019-03-24T07:05:04.195Z,20.71
2019-03-24T07:06:04.150Z,20.71
2019-03-24T07:07:04.205Z,20.71
2019-03-24T07:08:04.565Z,20.76
2019-03-24T07:09:04.250Z,20.78
2019-03-24T07:10:04.295Z,20.75
2019-03-24T07:11:11.406Z,20.73
2019-03-24T07:12:04.339Z,20.72
2019-03-24T07:14:04.456Z,20.69
2019-03-24T07:15:04.760Z,20.69
2019-03-24T07:16:04.478Z,20.71
2019-03-24T07:17:04.552Z,20.75
2019-03-24T07:18:08.687Z,20.75
2019-03-24T07:19:04.570Z,20.73
2019-03-24T07:20:04.594Z,20.73
2019-03-24T07:21:04.624Z,20.78
2019-03-24T07:22:07.230Z,20.76
2019-03-24T07:23:04.744Z,20.69
2019-03-24T07:24:04.732Z,20.72
2019-03-24T07:25:04.756Z,20.78
2019-03-24T07:26:04.796Z,20.73
2019-03-24T07:27:04.820Z,20.81
2019-03-24T07:28:04.896Z,20.82
2019-03-24T07:29:05.238Z,20.71
2019-03-24T07:30:04.985Z,20.73
2019-03-24T07:31:04.953Z,20.75
2019-03-24T07:32:04.981Z,20.85
2019-03-24T07:33:05.014Z,20.81
2019-03-24T07:34:05.049Z,20.79
2019-03-24T07:35:05.152Z,20.81
2019-03-24T07:36:05.513Z,20.78
2019-03-24T07:37:05.207Z,20.83
2019-03-24T07:38:05.228Z,20.83
2019-03-24T07:39:05.202Z,20.88
2019-03-24T07:41:05.346Z,20.79
2019-03-24T07:42:05.673Z,20.78
2019-03-24T07:43:05.688Z,20.78
2019-03-24T07:44:05.414Z,20.83
2019-03-24T07:45:05.440Z,20.81
2019-03-24T07:46:05.479Z,20.83
2019-03-24T07:47:05.461Z,20.83
2019-03-24T07:48:05.500Z,20.79
2019-03-24T07:49:05.518Z,20.78
2019-03-24T07:50:05.852Z,20.78
2019-03-24T07:51:05.638Z,20.82
2019-03-24T07:52:05.619Z,20.83
2019-03-24T07:53:05.646Z,20.81
2019-03-24T07:54:05.681Z,20.83
2019-03-24T07:55:05.714Z,20.88
2019-03-24T07:56:05.790Z,20.83
2019-03-24T07:57:06.134Z,20.83
2019-03-24T07:58:05.859Z,20.85
2019-03-24T07:59:05.893Z,20.82
2019-03-24T08:00:05.872Z,20.83
2019-03-24T08:01:06.056Z,20.90
2019-03-24T08:02:05.931Z,20.85
2019-03-24T08:03:06.018Z,20.82
2019-03-24T08:04:06.344Z,20.83
2019-03-24T08:05:06.080Z,20.88
2019-03-24T08:06:06.067Z,20.83
2019-03-24T08:07:06.092Z,20.85
2019-03-24T08:08:06.172Z,20.88
2019-03-24T08:10:06.343Z,20.83
2019-03-24T08:11:06.536Z,20.93
2019-03-24T08:12:06.254Z,20.85
2019-03-24T08:13:06.440Z,20.85
2019-03-24T08:14:06.320Z,20.91
2019-03-24T08:15:06.350Z,20.90
2019-03-24T08:16:06.383Z,20.90
2019-03-24T08:18:06.497Z,20.94
2019-03-24T08:19:06.832Z,20.85
2019-03-24T08:21:06.590Z,20.88
2019-03-24T08:22:06.627Z,20.94
2019-03-24T08:23:06.611Z,20.83
2019-03-24T08:24:06.705Z,20.98
2019-03-24T08:25:06.683Z,20.85
2019-03-24T08:26:07.011Z,20.83
2019-03-24T08:31:06.913Z,20.98
2019-03-24T08:32:06.951Z,20.94
2019-03-24T08:33:07.397Z,20.98
2019-03-24T08:34:07.007Z,21.00
2019-03-24T08:35:06.994Z,20.98
2019-03-24T08:36:07.037Z,20.98
2019-03-24T08:37:07.100Z,21.00
2019-03-24T08:38:07.085Z,21.00
2019-03-24T08:39:07.164Z,21.01
2019-03-24T08:40:07.498Z,21.03
2019-03-24T08:41:07.235Z,21.05
2019-03-24T08:42:07.266Z,21.05
2019-03-24T08:43:07.260Z,21.06
2019-03-24T08:44:07.330Z,21.09
2019-03-24T08:45:07.358Z,21.08
2019-03-24T08:46:07.347Z,21.05
2019-03-24T08:47:07.728Z,21.03
2019-03-24T08:49:07.488Z,21.06
2019-03-24T08:50:07.532Z,21.19
2019-03-24T08:52:07.538Z,21.19
2019-03-24T08:53:07.973Z,21.08
2019-03-24T08:55:07.689Z,21.24
2019-03-24T08:56:07.671Z,21.22
2019-03-24T08:57:07.748Z,21.18
2019-03-24T08:58:07.780Z,21.13
2019-03-24T08:59:08.115Z,21.18
2019-03-24T09:00:07.801Z,21.24
2019-03-24T09:01:07.989Z,21.22
2019-03-24T09:02:07.861Z,21.24
2019-03-24T09:03:07.896Z,21.21
2019-03-24T09:04:07.976Z,21.26
2019-03-24T09:05:08.305Z,21.22
2019-03-24T09:06:08.036Z,21.30
2019-03-24T09:08:08.057Z,21.31
2019-03-24T09:09:08.087Z,21.27
2019-03-24T09:10:08.172Z,21.28
2019-03-24T09:11:08.160Z,21.30
2019-03-24T09:13:08.567Z,21.31
2019-03-24T09:14:08.246Z,21.36
2019-03-24T09:15:08.325Z,21.34
2019-03-24T09:16:08.375Z,21.33
2019-03-24T09:17:08.412Z,21.33
2019-03-24T09:19:08.487Z,21.40
2019-03-24T09:21:08.826Z,21.45
2019-03-24T09:22:08.557Z,21.45
2019-03-24T09:23:10.583Z,21.45
2019-03-24T09:24:08.606Z,21.42
2019-03-24T09:25:08.658Z,21.43
2019-03-24T09:26:08.641Z,21.52
2019-03-24T09:27:09.021Z,21.46
2019-03-24T09:28:09.291Z,21.46
2019-03-24T09:29:08.739Z,21.58
2019-03-24T09:30:08.765Z,21.52
2019-03-24T09:31:08.799Z,21.56
2019-03-24T09:32:08.882Z,21.52
2019-03-24T09:33:08.917Z,21.52
2019-03-24T09:34:09.242Z,21.58
2019-03-24T09:35:08.983Z,21.53
2019-03-24T09:36:09.003Z,21.52
2019-03-24T09:37:09.045Z,21.56
2019-03-24T09:38:09.089Z,21.63
2019-03-24T09:39:09.057Z,21.59
2019-03-24T09:40:09.088Z,21.66
2019-03-24T09:41:09.482Z,21.64
2019-03-24T09:42:09.214Z,21.70
2019-03-24T09:43:09.190Z,21.68
2019-03-24T09:44:09.231Z,21.63
2019-03-24T09:45:09.307Z,21.70
2019-03-24T09:46:09.288Z,21.66
2019-03-24T09:47:09.369Z,21.74
2019-03-24T09:48:09.702Z,21.70
2019-03-24T09:49:09.438Z,21.75
2019-03-24T09:50:09.419Z,21.68
2019-03-24T09:52:09.534Z,21.70
2019-03-24T09:53:09.519Z,21.74
2019-03-24T09:54:09.553Z,21.74
2019-03-24T09:55:09.928Z,21.74
2019-03-24T09:56:09.618Z,21.81
2019-03-24T09:57:09.694Z,21.82
2019-03-24T09:58:09.677Z,21.75
2019-03-24T09:59:09.716Z,21.83
2019-03-24T10:00:09.799Z,21.67
2019-03-24T10:01:09.831Z,21.85
2019-03-24T10:02:10.159Z,21.77
2019-03-24T10:03:09.844Z,21.86
2019-03-24T10:04:09.877Z,21.81
2019-03-24T10:05:09.913Z,21.89
2019-03-24T10:06:09.995Z,21.74
2019-03-24T10:07:09.978Z,21.86
2019-03-24T10:08:10.064Z,21.83
2019-03-24T10:09:10.391Z,21.90
2019-03-24T10:10:10.221Z,21.81
2019-03-24T10:11:10.150Z,21.93
2019-03-24T10:12:10.144Z,21.89
2019-03-24T10:13:10.236Z,21.91
2019-03-24T10:14:10.256Z,21.96
2019-03-24T10:15:10.253Z,21.91
2019-03-24T10:16:10.619Z,21.91
2019-03-24T10:17:10.312Z,21.94
2019-03-24T10:18:10.340Z,21.86
2019-03-24T10:19:14.196Z,21.93
2019-03-24T10:20:10.408Z,21.93
2019-03-24T10:21:10.483Z,21.86
2019-03-24T10:22:10.461Z,21.85
2019-03-24T10:23:10.853Z,21.89
2019-03-24T10:24:10.577Z,21.86
2019-03-24T10:25:10.656Z,21.96
2019-03-24T10:26:10.597Z,21.86
2019-03-24T10:27:10.634Z,21.96
2019-03-24T10:28:10.710Z,21.90
2019-03-24T10:29:10.753Z,21.93
2019-03-24T10:30:11.082Z,21.93
2019-03-24T10:31:10.766Z,21.99
2019-03-24T10:32:10.841Z,21.98
2019-03-24T10:34:10.861Z,21.98
2019-03-24T10:35:10.939Z,21.86
2019-03-24T10:36:10.930Z,21.90
2019-03-24T10:37:11.314Z,21.91
2019-03-24T10:38:11.040Z,21.93
2019-03-24T10:39:11.078Z,21.96
2019-03-24T10:40:11.066Z,21.94
2019-03-24T10:41:11.142Z,21.99
2019-03-24T10:42:11.176Z,21.96
2019-03-24T10:43:11.168Z,21.86
2019-03-24T10:45:11.575Z,21.99
2019-03-24T10:47:11.345Z,21.98
2019-03-24T10:48:11.323Z,21.99
2019-03-24T10:49:11.359Z,21.99
2019-03-24T10:50:11.387Z,22.04
2019-03-24T10:51:11.469Z,22.02
2019-03-24T10:52:11.799Z,21.98
2019-03-24T10:53:11.535Z,22.05
2019-03-24T10:54:11.572Z,22.06
2019-03-24T10:55:11.555Z,21.98
2019-03-24T10:56:11.632Z,22.06
2019-03-24T10:57:11.620Z,22.01
2019-03-24T10:58:11.723Z,22.01
2019-03-24T10:59:12.042Z,22.05
2019-03-24T11:00:11.713Z,21.98
2019-03-24T11:01:11.800Z,22.05
2019-03-24T11:02:11.797Z,22.01
2019-03-24T11:03:11.865Z,22.06
2019-03-24T11:04:11.852Z,22.01
2019-03-24T11:05:11.937Z,22.06
2019-03-24T11:06:12.213Z,22.05
2019-03-24T11:07:11.944Z,21.98
2019-03-24T11:08:12.038Z,22.05
2019-03-24T11:09:12.078Z,22.01
2019-03-24T11:10:12.049Z,22.11
2019-03-24T11:11:12.084Z,22.06
2019-03-24T11:12:12.115Z,22.09
2019-03-24T11:13:12.144Z,22.08
2019-03-24T11:14:12.226Z,22.09
2019-03-24T11:15:12.230Z,22.02
2019-03-24T11:16:12.262Z,22.09
2019-03-24T11:17:12.286Z,22.09
2019-03-24T11:18:12.365Z,22.06
2019-03-24T11:19:12.701Z,22.08
2019-03-24T11:20:12.380Z,22.09
2019-03-24T11:21:12.463Z,22.08
2019-03-24T11:22:12.496Z,22.12
2019-03-24T11:23:12.532Z,22.06
2019-03-24T11:24:12.522Z,22.09
2019-03-24T11:25:12.897Z,22.06
2019-03-24T11:26:12.623Z,22.12
2019-03-24T11:27:12.613Z,22.11
2019-03-24T11:28:12.650Z,22.15
2019-03-24T11:29:12.730Z,22.09
2019-03-24T11:30:12.771Z,22.15
2019-03-24T11:31:13.045Z,22.11
2019-03-24T11:32:12.829Z,22.12
2019-03-24T11:33:12.864Z,22.11
2019-03-24T11:34:12.841Z,22.08
2019-03-24T11:35:12.925Z,22.15
2019-03-24T11:36:12.964Z,22.12
2019-03-24T11:37:12.992Z,22.15
2019-03-24T11:38:13.286Z,22.20
2019-03-24T11:39:13.005Z,22.14
2019-03-24T11:40:13.098Z,22.15
2019-03-24T11:41:13.121Z,22.23
2019-03-24T11:42:13.115Z,22.14
2019-03-24T11:43:13.188Z,22.20
2019-03-24T11:44:13.176Z,22.09
2019-03-24T11:45:13.555Z,22.24
2019-03-24T11:46:13.239Z,22.19
2019-03-24T11:47:13.322Z,22.27
2019-03-24T11:48:13.366Z,22.23
2019-03-24T11:49:13.401Z,22.21
2019-03-24T11:50:13.430Z,22.21
2019-03-24T11:51:13.453Z,22.21
2019-03-24T11:52:13.745Z,22.21
2019-03-24T11:53:13.475Z,22.23
2019-03-24T11:54:13.551Z,22.26
2019-03-24T11:55:13.589Z,22.30
2019-03-24T11:56:13.571Z,22.31
2019-03-24T11:57:13.605Z,22.24
2019-03-24T11:58:13.636Z,22.30
2019-03-24T11:59:14.024Z,22.30
2019-03-24T12:00:13.706Z,22.31
2019-03-24T12:01:13.743Z,22.23
2019-03-24T12:02:13.780Z,22.27
2019-03-24T12:03:13.857Z,22.24
2019-03-24T12:04:13.886Z,22.33
2019-03-24T12:05:13.876Z,22.31
2019-03-24T12:06:15.061Z,22.42
2019-03-24T12:07:13.944Z,22.38
2019-03-24T12:08:13.972Z,22.44
2019-03-24T12:09:14.058Z,22.31
2019-03-24T12:10:14.093Z,22.38
2019-03-24T12:11:14.075Z,22.36
2019-03-24T12:12:14.107Z,22.33
2019-03-24T12:13:14.506Z,22.45
2019-03-24T12:14:14.175Z,22.39
2019-03-24T12:15:14.252Z,22.44
2019-03-24T12:16:14.244Z,22.41
2019-03-24T12:17:14.322Z,22.44
2019-03-24T12:18:14.312Z,22.44
2019-03-24T12:19:14.450Z,22.41
2019-03-24T12:20:14.728Z,22.44
2019-03-24T12:21:14.459Z,22.39
2019-03-24T12:22:14.493Z,22.36
2019-03-24T12:23:14.522Z,22.38
2019-03-24T12:24:14.663Z,22.39
2019-03-24T12:25:14.591Z,22.42
2019-03-24T12:26:14.726Z,22.45
2019-03-24T12:27:14.908Z,22.49
2019-03-24T12:28:14.800Z,22.44
2019-03-24T12:29:14.730Z,22.49
2019-03-24T12:30:14.763Z,22.45
2019-03-24T12:31:14.749Z,22.45
2019-03-24T12:32:15.660Z,22.48
2019-03-24T12:33:14.872Z,22.38
2019-03-24T12:34:15.194Z,22.42
2019-03-24T12:35:14.925Z,22.54
2019-03-24T12:36:14.956Z,22.51
2019-03-24T12:37:15.006Z,22.51
2019-03-24T12:38:14.980Z,22.46
2019-03-24T12:39:15.013Z,22.49
2019-03-24T12:40:15.045Z,22.52
2019-03-24T12:41:15.430Z,22.48
2019-03-24T12:45:15.306Z,22.46
2019-03-24T12:46:15.302Z,22.56
2019-03-24T12:47:15.337Z,22.49
2019-03-24T12:48:15.710Z,22.54
2019-03-24T12:49:15.348Z,22.59
2019-03-24T12:50:15.436Z,22.56
2019-03-24T12:51:15.466Z,22.61
2019-03-24T12:52:15.518Z,22.60
2019-03-24T12:53:15.532Z,22.51
2019-03-24T12:54:15.515Z,22.59
2019-03-24T12:55:15.901Z,22.60
2019-03-24T12:56:15.588Z,22.56
2019-03-24T12:57:15.780Z,22.64
2019-03-24T12:58:15.712Z,22.67
2019-03-24T12:59:15.747Z,22.59
2019-03-24T13:00:15.776Z,22.61
2019-03-24T13:01:15.756Z,22.67
2019-03-24T13:02:16.140Z,22.69
2019-03-24T13:03:15.823Z,22.57
2019-03-24T13:04:15.914Z,22.60
2019-03-24T13:05:15.952Z,22.70
2019-03-24T13:06:15.979Z,22.70
2019-03-24T13:07:16.014Z,22.66
2019-03-24T13:08:16.002Z,22.64
2019-03-24T13:09:16.391Z,22.74
2019-03-24T13:10:16.107Z,22.70
2019-03-24T13:11:16.099Z,22.74
2019-03-24T13:12:16.181Z,22.69
2019-03-24T13:13:16.228Z,22.76
2019-03-24T13:14:16.201Z,22.70
2019-03-24T13:15:16.582Z,22.76
2019-03-24T13:16:16.280Z,22.70
2019-03-24T13:17:16.357Z,22.64
2019-03-24T13:18:16.354Z,22.74
2019-03-24T13:19:16.371Z,22.70
2019-03-24T13:20:26.739Z,22.72
2019-03-24T13:21:16.805Z,22.72
2019-03-24T13:22:16.524Z,22.74
2019-03-24T13:23:16.522Z,22.72
2019-03-24T13:24:16.541Z,22.74
2019-03-24T13:25:16.634Z,22.74
2019-03-24T13:26:16.672Z,22.84